sensor_id;sensor_type;location;lat;lon;timestamp;temperature;humidity
28520;DHT22;15732;48.534;20.382;2023-12-28T00:01:45;2.40;99.90
28520;DHT22;15732;48.534;20.382;2023-12-28T00:04:13;2.40;99.90
28520;DHT22;15732;48.534;20.382;2023-12-28T00:06:40;2.30;99.90
28520;DHT22;15732;48.534;20.382;2023-12-28T00:09:11;2.30;99.90
28520;DHT22;15732;48.534;20.382;2023-12-28T00:11:39;2.30;99.90
28520;DHT22;15732;48.534;20.382;2023-12-28T00:14:06;2.30;99.90
28520;DHT22;15732;48.534;20.382;2023-12-28T00:16:33;2.30;99.90
28520;DHT22;15732;48.534;20.382;2023-12-28T00:19:06;2.30;99.90
28520;DHT22;15732;48.534;20.382;2023-12-28T00:21:37;2.30;99.90
28520;DHT22;15732;48.534;20.382;2023-12-28T00:24:09;2.40;99.90
28520;DHT22;15732;48.534;20.382;2023-12-28T00:26:36;2.40;99.90
28520;DHT22;15732;48.534;20.382;2023-12-28T00:29:03;2.50;99.90
28520;DHT22;15732;48.534;20.382;2023-12-28T00:31:34;2.50;99.90
28520;DHT22;15732;48.534;20.382;2023-12-28T00:34:05;2.50;99.90
28520;DHT22;15732;48.534;20.382;2023-12-28T00:36:36;2.50;99.90
28520;DHT22;15732;48.534;20.382;2023-12-28T00:39:07;2.50;99.90
28520;DHT22;15732;48.534;20.382;2023-12-28T00:41:39;2.50;99.90
28520;DHT22;15732;48.534;20.382;2023-12-28T00:44:10;2.40;99.90
28520;DHT22;15732;48.534;20.382;2023-12-28T00:46:41;2.40;99.90
28520;DHT22;15732;48.534;20.382;2023-12-28T00:49:08;2.40;99.90
28520;DHT22;15732;48.534;20.382;2023-12-28T00:51:35;2.40;99.90
28520;DHT22;15732;48.534;20.382;2023-12-28T00:54:07;2.40;99.90
28520;DHT22;15732;48.534;20.382;2023-12-28T00:56:34;2.40;99.90
28520;DHT22;15732;48.534;20.382;2023-12-28T00:59:02;2.50;99.90
28520;DHT22;15732;48.534;20.382;2023-12-28T01:01:33;2.50;99.90
28520;DHT22;15732;48.534;20.382;2023-12-28T01:04:04;2.60;99.90
28520;DHT22;15732;48.534;20.382;2023-12-28T01:06:35;2.60;99.90
28520;DHT22;15732;48.534;20.382;2023-12-28T01:09:07;2.70;99.90
28520;DHT22;15732;48.534;20.382;2023-12-28T01:11:38;2.80;99.90
28520;DHT22;15732;48.534;20.382;2023-12-28T01:14:09;2.80;99.90
28520;DHT22;15732;48.534;20.382;2023-12-28T01:16:37;2.80;99.90
28520;DHT22;15732;48.534;20.382;2023-12-28T01:19:05;2.90;99.90
28520;DHT22;15732;48.534;20.382;2023-12-28T01:21:36;2.80;99.90
28520;DHT22;15732;48.534;20.382;2023-12-28T01:24:04;2.80;99.90
28520;DHT22;15732;48.534;20.382;2023-12-28T01:26:32;2.80;99.90
28520;DHT22;15732;48.534;20.382;2023-12-28T01:28:59;2.80;99.90
28520;DHT22;15732;48.534;20.382;2023-12-28T01:31:29;2.80;99.90
28520;DHT22;15732;48.534;20.382;2023-12-28T01:34:00;2.80;99.90
28520;DHT22;15732;48.534;20.382;2023-12-28T01:36:27;2.80;99.90
28520;DHT22;15732;48.534;20.382;2023-12-28T01:38:56;2.80;99.90
28520;DHT22;15732;48.534;20.382;2023-12-28T01:41:22;2.80;99.90
28520;DHT22;15732;48.534;20.382;2023-12-28T01:43:54;2.90;99.90
28520;DHT22;15732;48.534;20.382;2023-12-28T01:46:21;2.90;99.90
28520;DHT22;15732;48.534;20.382;2023-12-28T01:48:50;3.00;99.90
28520;DHT22;15732;48.534;20.382;2023-12-28T01:51:22;3.00;99.90
28520;DHT22;15732;48.534;20.382;2023-12-28T01:53:54;3.00;99.90
28520;DHT22;15732;48.534;20.382;2023-12-28T01:56:24;2.90;99.90
28520;DHT22;15732;48.534;20.382;2023-12-28T01:58:55;3.00;99.90
28520;DHT22;15732;48.534;20.382;2023-12-28T02:01:22;2.80;99.90
28520;DHT22;15732;48.534;20.382;2023-12-28T02:03:55;2.90;99.90
28520;DHT22;15732;48.534;20.382;2023-12-28T02:06:26;2.80;99.90
28520;DHT22;15732;48.534;20.382;2023-12-28T02:08:56;2.80;99.90
28520;DHT22;15732;48.534;20.382;2023-12-28T02:11:27;2.80;99.90
28520;DHT22;15732;48.534;20.382;2023-12-28T02:13:59;2.80;99.90
28520;DHT22;15732;48.534;20.382;2023-12-28T02:16:36;2.80;99.90
28520;DHT22;15732;48.534;20.382;2023-12-28T02:19:40;2.90;99.90
28520;DHT22;15732;48.534;20.382;2023-12-28T02:22:14;3.00;99.90
28520;DHT22;15732;48.534;20.382;2023-12-28T02:24:58;3.00;99.90
28520;DHT22;15732;48.534;20.382;2023-12-28T02:27:28;3.10;99.90
28520;DHT22;15732;48.534;20.382;2023-12-28T02:30:00;3.10;99.90
28520;DHT22;15732;48.534;20.382;2023-12-28T02:35:20;3.10;99.90
28520;DHT22;15732;48.534;20.382;2023-12-28T02:37:55;3.20;99.90
28520;DHT22;15732;48.534;20.382;2023-12-28T02:40:30;3.20;99.90
28520;DHT22;15732;48.534;20.382;2023-12-28T02:43:03;3.30;99.90
28520;DHT22;15732;48.534;20.382;2023-12-28T02:45:30;3.30;99.90
28520;DHT22;15732;48.534;20.382;2023-12-28T02:48:02;3.30;99.90
28520;DHT22;15732;48.534;20.382;2023-12-28T02:50:29;3.40;99.90
28520;DHT22;15732;48.534;20.382;2023-12-28T02:53:01;3.40;99.90
28520;DHT22;15732;48.534;20.382;2023-12-28T02:55:28;3.40;99.90
28520;DHT22;15732;48.534;20.382;2023-12-28T02:57:59;3.40;99.90
28520;DHT22;15732;48.534;20.382;2023-12-28T03:00:30;3.50;99.90
28520;DHT22;15732;48.534;20.382;2023-12-28T03:03:01;3.50;99.90
28520;DHT22;15732;48.534;20.382;2023-12-28T03:05:28;3.50;99.90
28520;DHT22;15732;48.534;20.382;2023-12-28T03:07:59;3.50;99.90
28520;DHT22;15732;48.534;20.382;2023-12-28T03:10:26;3.50;99.90
28520;DHT22;15732;48.534;20.382;2023-12-28T03:12:57;3.40;99.90
28520;DHT22;15732;48.534;20.382;2023-12-28T03:15:28;3.40;99.90
28520;DHT22;15732;48.534;20.382;2023-12-28T03:17:59;3.40;99.90
28520;DHT22;15732;48.534;20.382;2023-12-28T03:20:30;3.50;99.90
28520;DHT22;15732;48.534;20.382;2023-12-28T03:23:01;3.50;99.90
28520;DHT22;15732;48.534;20.382;2023-12-28T03:25:28;3.50;99.90
28520;DHT22;15732;48.534;20.382;2023-12-28T03:27:59;3.50;99.90
28520;DHT22;15732;48.534;20.382;2023-12-28T03:30:26;3.50;99.90
28520;DHT22;15732;48.534;20.382;2023-12-28T03:32:57;3.50;99.90
28520;DHT22;15732;48.534;20.382;2023-12-28T03:35:29;3.50;99.90
28520;DHT22;15732;48.534;20.382;2023-12-28T03:38:00;3.60;99.90
28520;DHT22;15732;48.534;20.382;2023-12-28T03:40:31;3.60;99.90
28520;DHT22;15732;48.534;20.382;2023-12-28T03:43:02;3.60;99.90
28520;DHT22;15732;48.534;20.382;2023-12-28T03:45:34;3.60;99.90
28520;DHT22;15732;48.534;20.382;2023-12-28T03:48:05;3.60;99.90
28520;DHT22;15732;48.534;20.382;2023-12-28T03:50:36;3.60;99.90
28520;DHT22;15732;48.534;20.382;2023-12-28T03:53:04;3.60;99.90
28520;DHT22;15732;48.534;20.382;2023-12-28T03:55:35;3.60;99.90
28520;DHT22;15732;48.534;20.382;2023-12-28T03:58:02;3.60;99.90
28520;DHT22;15732;48.534;20.382;2023-12-28T04:00:29;3.60;99.90
28520;DHT22;15732;48.534;20.382;2023-12-28T04:03:00;3.50;99.90
28520;DHT22;15732;48.534;20.382;2023-12-28T04:05:28;3.50;99.90
28520;DHT22;15732;48.534;20.382;2023-12-28T04:07:55;3.50;99.90
28520;DHT22;15732;48.534;20.382;2023-12-28T04:10:33;3.50;99.90
28520;DHT22;15732;48.534;20.382;2023-12-28T04:13:04;3.50;99.90
28520;DHT22;15732;48.534;20.382;2023-12-28T04:15:35;3.50;99.90
28520;DHT22;15732;48.534;20.382;2023-12-28T04:18:05;3.50;99.90
28520;DHT22;15732;48.534;20.382;2023-12-28T04:20:37;3.50;99.90
28520;DHT22;15732;48.534;20.382;2023-12-28T04:23:08;3.60;99.90
28520;DHT22;15732;48.534;20.382;2023-12-28T04:25:35;3.60;99.90
28520;DHT22;15732;48.534;20.382;2023-12-28T04:28:03;3.60;99.90
28520;DHT22;15732;48.534;20.382;2023-12-28T04:30:30;3.60;99.90
28520;DHT22;15732;48.534;20.382;2023-12-28T04:33:01;3.60;99.90
28520;DHT22;15732;48.534;20.382;2023-12-28T04:35:28;3.60;99.90
28520;DHT22;15732;48.534;20.382;2023-12-28T04:37:59;3.60;99.90
28520;DHT22;15732;48.534;20.382;2023-12-28T04:40:27;3.60;99.90
28520;DHT22;15732;48.534;20.382;2023-12-28T04:42:58;3.60;99.90
28520;DHT22;15732;48.534;20.382;2023-12-28T04:45:29;3.60;99.90
28520;DHT22;15732;48.534;20.382;2023-12-28T04:47:56;3.60;99.90
28520;DHT22;15732;48.534;20.382;2023-12-28T04:50:26;3.60;99.90
28520;DHT22;15732;48.534;20.382;2023-12-28T04:52:57;3.60;99.90
28520;DHT22;15732;48.534;20.382;2023-12-28T04:55:28;3.70;99.90
28520;DHT22;15732;48.534;20.382;2023-12-28T04:57:59;3.60;99.90
28520;DHT22;15732;48.534;20.382;2023-12-28T05:00:31;3.60;99.90
28520;DHT22;15732;48.534;20.382;2023-12-28T05:02:57;3.60;99.90
28520;DHT22;15732;48.534;20.382;2023-12-28T05:05:29;3.50;99.90
28520;DHT22;15732;48.534;20.382;2023-12-28T05:08:00;3.50;99.90
28520;DHT22;15732;48.534;20.382;2023-12-28T05:10:31;3.50;99.90
28520;DHT22;15732;48.534;20.382;2023-12-28T05:13:02;3.50;99.90
28520;DHT22;15732;48.534;20.382;2023-12-28T05:15:30;3.50;99.90
28520;DHT22;15732;48.534;20.382;2023-12-28T05:18:01;3.50;99.90
28520;DHT22;15732;48.534;20.382;2023-12-28T05:20:29;3.50;99.90
28520;DHT22;15732;48.534;20.382;2023-12-28T05:23:00;3.50;99.90
28520;DHT22;15732;48.534;20.382;2023-12-28T05:25:31;3.40;99.90
28520;DHT22;15732;48.534;20.382;2023-12-28T05:28:02;3.50;99.90
28520;DHT22;15732;48.534;20.382;2023-12-28T05:30:29;3.50;99.90
28520;DHT22;15732;48.534;20.382;2023-12-28T05:33:00;3.50;99.90
28520;DHT22;15732;48.534;20.382;2023-12-28T05:35:31;3.50;99.90
28520;DHT22;15732;48.534;20.382;2023-12-28T05:38:03;3.50;99.90
28520;DHT22;15732;48.534;20.382;2023-12-28T05:40:34;3.50;99.90
28520;DHT22;15732;48.534;20.382;2023-12-28T05:43:06;3.50;99.90
28520;DHT22;15732;48.534;20.382;2023-12-28T05:45:36;3.50;99.90
28520;DHT22;15732;48.534;20.382;2023-12-28T05:48:07;3.50;99.90
28520;DHT22;15732;48.534;20.382;2023-12-28T05:50:38;3.60;99.90
28520;DHT22;15732;48.534;20.382;2023-12-28T05:53:10;3.60;99.90
28520;DHT22;15732;48.534;20.382;2023-12-28T05:55:41;3.70;99.90
28520;DHT22;15732;48.534;20.382;2023-12-28T05:58:12;3.70;99.90
28520;DHT22;15732;48.534;20.382;2023-12-28T06:00:39;3.80;99.90
28520;DHT22;15732;48.534;20.382;2023-12-28T06:03:12;3.80;99.90
28520;DHT22;15732;48.534;20.382;2023-12-28T06:05:43;3.80;99.90
28520;DHT22;15732;48.534;20.382;2023-12-28T06:08:14;3.80;99.90
28520;DHT22;15732;48.534;20.382;2023-12-28T06:10:45;3.80;99.90
28520;DHT22;15732;48.534;20.382;2023-12-28T06:13:16;3.80;99.90
28520;DHT22;15732;48.534;20.382;2023-12-28T06:15:47;3.80;99.90
28520;DHT22;15732;48.534;20.382;2023-12-28T06:18:19;3.70;99.90
28520;DHT22;15732;48.534;20.382;2023-12-28T06:20:51;3.70;99.90
28520;DHT22;15732;48.534;20.382;2023-12-28T06:23:22;3.70;99.90
28520;DHT22;15732;48.534;20.382;2023-12-28T06:25:53;3.70;99.90
28520;DHT22;15732;48.534;20.382;2023-12-28T06:28:24;3.80;99.90
28520;DHT22;15732;48.534;20.382;2023-12-28T06:30:55;3.80;99.90
28520;DHT22;15732;48.534;20.382;2023-12-28T06:33:29;3.70;99.90
28520;DHT22;15732;48.534;20.382;2023-12-28T06:35:57;3.70;99.90
28520;DHT22;15732;48.534;20.382;2023-12-28T06:38:27;3.80;99.90
28520;DHT22;15732;48.534;20.382;2023-12-28T06:41:01;3.80;99.90
28520;DHT22;15732;48.534;20.382;2023-12-28T06:43:32;3.80;99.90
28520;DHT22;15732;48.534;20.382;2023-12-28T06:46:00;3.80;99.90
28520;DHT22;15732;48.534;20.382;2023-12-28T06:48:31;3.80;99.90
28520;DHT22;15732;48.534;20.382;2023-12-28T06:51:02;3.80;99.90
28520;DHT22;15732;48.534;20.382;2023-12-28T06:53:29;3.80;99.90
28520;DHT22;15732;48.534;20.382;2023-12-28T06:56:00;3.80;99.90
28520;DHT22;15732;48.534;20.382;2023-12-28T06:58:32;3.80;99.90
28520;DHT22;15732;48.534;20.382;2023-12-28T07:01:04;3.80;99.90
28520;DHT22;15732;48.534;20.382;2023-12-28T07:03:35;3.90;99.90
28520;DHT22;15732;48.534;20.382;2023-12-28T07:06:03;3.90;99.90
28520;DHT22;15732;48.534;20.382;2023-12-28T07:08:30;3.90;99.90
28520;DHT22;15732;48.534;20.382;2023-12-28T07:11:02;3.90;99.90
28520;DHT22;15732;48.534;20.382;2023-12-28T07:13:29;3.90;99.90
28520;DHT22;15732;48.534;20.382;2023-12-28T07:15:56;3.90;99.90
28520;DHT22;15732;48.534;20.382;2023-12-28T07:18:27;4.00;99.90
28520;DHT22;15732;48.534;20.382;2023-12-28T07:20:58;4.00;99.90
28520;DHT22;15732;48.534;20.382;2023-12-28T07:23:30;4.00;99.90
28520;DHT22;15732;48.534;20.382;2023-12-28T07:25:57;4.00;99.90
28520;DHT22;15732;48.534;20.382;2023-12-28T07:28:27;4.00;99.90
28520;DHT22;15732;48.534;20.382;2023-12-28T07:30:58;4.00;99.90
28520;DHT22;15732;48.534;20.382;2023-12-28T07:33:29;4.00;99.90
28520;DHT22;15732;48.534;20.382;2023-12-28T07:36:00;4.00;99.90
28520;DHT22;15732;48.534;20.382;2023-12-28T07:38:32;4.00;99.90
28520;DHT22;15732;48.534;20.382;2023-12-28T07:41:04;4.00;99.90
28520;DHT22;15732;48.534;20.382;2023-12-28T07:43:36;4.00;99.90
28520;DHT22;15732;48.534;20.382;2023-12-28T07:46:06;4.10;99.90
28520;DHT22;15732;48.534;20.382;2023-12-28T07:48:37;4.00;99.90
28520;DHT22;15732;48.534;20.382;2023-12-28T07:51:09;4.00;99.90
28520;DHT22;15732;48.534;20.382;2023-12-28T07:53:43;4.10;99.90
28520;DHT22;15732;48.534;20.382;2023-12-28T07:56:14;4.10;99.90
28520;DHT22;15732;48.534;20.382;2023-12-28T07:58:41;4.10;99.90
28520;DHT22;15732;48.534;20.382;2023-12-28T08:01:13;4.10;99.90
28520;DHT22;15732;48.534;20.382;2023-12-28T08:03:44;4.10;99.90
28520;DHT22;15732;48.534;20.382;2023-12-28T08:06:15;4.20;99.90
28520;DHT22;15732;48.534;20.382;2023-12-28T08:08:46;4.20;99.90
28520;DHT22;15732;48.534;20.382;2023-12-28T08:11:17;4.20;99.90
28520;DHT22;15732;48.534;20.382;2023-12-28T08:13:48;4.30;99.90
28520;DHT22;15732;48.534;20.382;2023-12-28T08:16:20;4.30;99.90
28520;DHT22;15732;48.534;20.382;2023-12-28T08:18:50;4.40;99.90
28520;DHT22;15732;48.534;20.382;2023-12-28T08:21:21;4.40;99.90
28520;DHT22;15732;48.534;20.382;2023-12-28T08:23:52;4.40;99.90
28520;DHT22;15732;48.534;20.382;2023-12-28T08:26:23;4.50;99.90
28520;DHT22;15732;48.534;20.382;2023-12-28T08:28:55;4.50;99.90
28520;DHT22;15732;48.534;20.382;2023-12-28T08:31:22;4.50;99.90
28520;DHT22;15732;48.534;20.382;2023-12-28T08:33:53;4.60;99.90
28520;DHT22;15732;48.534;20.382;2023-12-28T08:36:25;4.60;99.90
28520;DHT22;15732;48.534;20.382;2023-12-28T08:38:56;4.60;99.90
28520;DHT22;15732;48.534;20.382;2023-12-28T08:41:27;4.70;99.90
28520;DHT22;15732;48.534;20.382;2023-12-28T08:43:58;4.80;99.90
28520;DHT22;15732;48.534;20.382;2023-12-28T08:46:29;4.80;99.90
28520;DHT22;15732;48.534;20.382;2023-12-28T08:48:56;4.80;99.90
28520;DHT22;15732;48.534;20.382;2023-12-28T08:51:28;4.90;99.90
28520;DHT22;15732;48.534;20.382;2023-12-28T08:53:59;4.90;99.90
28520;DHT22;15732;48.534;20.382;2023-12-28T08:56:30;5.00;99.90
28520;DHT22;15732;48.534;20.382;2023-12-28T08:59:01;5.00;99.90
28520;DHT22;15732;48.534;20.382;2023-12-28T09:01:32;5.10;99.90
28520;DHT22;15732;48.534;20.382;2023-12-28T09:04:00;5.10;99.90
28520;DHT22;15732;48.534;20.382;2023-12-28T09:06:31;5.20;99.90
28520;DHT22;15732;48.534;20.382;2023-12-28T09:09:02;5.20;99.90
28520;DHT22;15732;48.534;20.382;2023-12-28T09:11:33;5.30;99.90
28520;DHT22;15732;48.534;20.382;2023-12-28T09:14:00;5.40;99.90
28520;DHT22;15732;48.534;20.382;2023-12-28T09:16:32;5.40;99.90
28520;DHT22;15732;48.534;20.382;2023-12-28T09:19:04;5.50;99.90
28520;DHT22;15732;48.534;20.382;2023-12-28T09:21:31;5.50;99.90
28520;DHT22;15732;48.534;20.382;2023-12-28T09:24:02;5.60;99.90
28520;DHT22;15732;48.534;20.382;2023-12-28T09:26:30;5.60;99.90
28520;DHT22;15732;48.534;20.382;2023-12-28T09:29:02;5.60;99.90
28520;DHT22;15732;48.534;20.382;2023-12-28T09:31:33;5.70;99.90
28520;DHT22;15732;48.534;20.382;2023-12-28T09:34:05;5.80;99.90
28520;DHT22;15732;48.534;20.382;2023-12-28T09:36:36;5.80;99.90
28520;DHT22;15732;48.534;20.382;2023-12-28T09:39:07;5.90;99.90
28520;DHT22;15732;48.534;20.382;2023-12-28T09:41:40;6.00;99.90
28520;DHT22;15732;48.534;20.382;2023-12-28T09:44:15;6.10;99.90
28520;DHT22;15732;48.534;20.382;2023-12-28T09:46:48;6.20;99.90
28520;DHT22;15732;48.534;20.382;2023-12-28T09:49:21;6.20;99.90
28520;DHT22;15732;48.534;20.382;2023-12-28T09:51:52;6.30;99.90
28520;DHT22;15732;48.534;20.382;2023-12-28T09:54:23;6.40;99.90
28520;DHT22;15732;48.534;20.382;2023-12-28T09:56:54;6.50;99.90
28520;DHT22;15732;48.534;20.382;2023-12-28T09:59:27;6.60;99.90
28520;DHT22;15732;48.534;20.382;2023-12-28T10:02:00;6.60;99.90
28520;DHT22;15732;48.534;20.382;2023-12-28T10:04:32;6.70;99.90
28520;DHT22;15732;48.534;20.382;2023-12-28T10:07:04;6.70;99.90
28520;DHT22;15732;48.534;20.382;2023-12-28T10:09:31;6.80;99.90
28520;DHT22;15732;48.534;20.382;2023-12-28T10:12:02;6.90;99.90
28520;DHT22;15732;48.534;20.382;2023-12-28T10:14:31;6.90;99.90
28520;DHT22;15732;48.534;20.382;2023-12-28T10:17:02;7.00;99.90
28520;DHT22;15732;48.534;20.382;2023-12-28T10:19:33;7.00;99.90
28520;DHT22;15732;48.534;20.382;2023-12-28T10:22:04;7.10;99.90
28520;DHT22;15732;48.534;20.382;2023-12-28T10:24:42;7.10;99.90
28520;DHT22;15732;48.534;20.382;2023-12-28T10:27:16;7.20;99.90
28520;DHT22;15732;48.534;20.382;2023-12-28T10:29:47;7.30;99.90
28520;DHT22;15732;48.534;20.382;2023-12-28T10:32:18;7.40;99.90
28520;DHT22;15732;48.534;20.382;2023-12-28T10:34:49;7.40;99.90
28520;DHT22;15732;48.534;20.382;2023-12-28T10:37:21;7.50;99.90
28520;DHT22;15732;48.534;20.382;2023-12-28T10:39:53;7.60;99.90
28520;DHT22;15732;48.534;20.382;2023-12-28T10:42:29;7.60;99.90
28520;DHT22;15732;48.534;20.382;2023-12-28T10:45:18;7.70;99.90
28520;DHT22;15732;48.534;20.382;2023-12-28T10:50:23;7.80;99.90
28520;DHT22;15732;48.534;20.382;2023-12-28T10:53:00;7.90;99.90
28520;DHT22;15732;48.534;20.382;2023-12-28T10:55:41;7.90;99.90
28520;DHT22;15732;48.534;20.382;2023-12-28T10:58:30;8.00;99.90
28520;DHT22;15732;48.534;20.382;2023-12-28T11:01:04;8.00;99.90
28520;DHT22;15732;48.534;20.382;2023-12-28T11:03:36;8.10;99.90
28520;DHT22;15732;48.534;20.382;2023-12-28T11:06:08;8.20;99.90
28520;DHT22;15732;48.534;20.382;2023-12-28T11:08:41;8.20;99.90
28520;DHT22;15732;48.534;20.382;2023-12-28T11:11:16;8.20;99.90
28520;DHT22;15732;48.534;20.382;2023-12-28T11:13:47;8.30;99.90
28520;DHT22;15732;48.534;20.382;2023-12-28T11:16:22;8.30;99.90
28520;DHT22;15732;48.534;20.382;2023-12-28T11:18:53;8.40;99.90
28520;DHT22;15732;48.534;20.382;2023-12-28T11:21:22;8.40;99.90
28520;DHT22;15732;48.534;20.382;2023-12-28T11:23:54;8.40;99.90
28520;DHT22;15732;48.534;20.382;2023-12-28T11:26:24;8.40;99.90
28520;DHT22;15732;48.534;20.382;2023-12-28T11:29:03;8.40;99.90
28520;DHT22;15732;48.534;20.382;2023-12-28T11:31:35;8.50;99.90
28520;DHT22;15732;48.534;20.382;2023-12-28T11:34:05;8.50;99.90
28520;DHT22;15732;48.534;20.382;2023-12-28T11:36:48;8.50;99.90
28520;DHT22;15732;48.534;20.382;2023-12-28T11:39:36;8.50;99.90
28520;DHT22;15732;48.534;20.382;2023-12-28T11:42:09;8.50;99.90
28520;DHT22;15732;48.534;20.382;2023-12-28T11:44:39;8.50;99.90
28520;DHT22;15732;48.534;20.382;2023-12-28T11:49:42;8.50;99.90
28520;DHT22;15732;48.534;20.382;2023-12-28T11:52:29;8.50;99.90
28520;DHT22;15732;48.534;20.382;2023-12-28T11:54:56;8.40;99.90
28520;DHT22;15732;48.534;20.382;2023-12-28T11:57:23;8.40;99.90
28520;DHT22;15732;48.534;20.382;2023-12-28T11:59:55;8.30;99.90
28520;DHT22;15732;48.534;20.382;2023-12-28T12:02:26;8.30;99.90
28520;DHT22;15732;48.534;20.382;2023-12-28T12:04:54;8.30;99.90
28520;DHT22;15732;48.534;20.382;2023-12-28T12:07:24;8.30;99.90
28520;DHT22;15732;48.534;20.382;2023-12-28T12:10:15;8.20;99.90
28520;DHT22;15732;48.534;20.382;2023-12-28T12:12:44;8.20;99.90
28520;DHT22;15732;48.534;20.382;2023-12-28T12:15:11;8.20;99.90
28520;DHT22;15732;48.534;20.382;2023-12-28T12:17:38;8.20;99.90
28520;DHT22;15732;48.534;20.382;2023-12-28T12:20:10;8.20;99.90
28520;DHT22;15732;48.534;20.382;2023-12-28T12:22:37;8.20;99.90
28520;DHT22;15732;48.534;20.382;2023-12-28T12:25:06;8.20;99.90
28520;DHT22;15732;48.534;20.382;2023-12-28T12:27:38;8.20;99.90
28520;DHT22;15732;48.534;20.382;2023-12-28T12:30:06;8.20;99.90
28520;DHT22;15732;48.534;20.382;2023-12-28T12:32:36;8.20;99.90
28520;DHT22;15732;48.534;20.382;2023-12-28T12:35:12;8.20;99.90
28520;DHT22;15732;48.534;20.382;2023-12-28T12:37:41;8.10;99.90
28520;DHT22;15732;48.534;20.382;2023-12-28T12:40:09;8.20;99.90
28520;DHT22;15732;48.534;20.382;2023-12-28T12:42:38;8.20;99.90
28520;DHT22;15732;48.534;20.382;2023-12-28T12:45:06;8.20;99.90
28520;DHT22;15732;48.534;20.382;2023-12-28T12:47:34;8.20;99.90
28520;DHT22;15732;48.534;20.382;2023-12-28T12:50:05;8.20;99.90
28520;DHT22;15732;48.534;20.382;2023-12-28T12:52:33;8.20;99.90
28520;DHT22;15732;48.534;20.382;2023-12-28T12:55:01;8.20;99.90
28520;DHT22;15732;48.534;20.382;2023-12-28T12:57:28;8.20;99.90
28520;DHT22;15732;48.534;20.382;2023-12-28T12:59:56;8.20;99.90
28520;DHT22;15732;48.534;20.382;2023-12-28T13:02:24;8.10;99.90
28520;DHT22;15732;48.534;20.382;2023-12-28T13:04:56;8.10;99.90
28520;DHT22;15732;48.534;20.382;2023-12-28T13:07:24;8.10;99.90
28520;DHT22;15732;48.534;20.382;2023-12-28T13:09:55;8.10;99.90
28520;DHT22;15732;48.534;20.382;2023-12-28T13:12:25;8.20;99.90
28520;DHT22;15732;48.534;20.382;2023-12-28T13:14:53;8.10;99.90
28520;DHT22;15732;48.534;20.382;2023-12-28T13:17:20;8.10;99.90
28520;DHT22;15732;48.534;20.382;2023-12-28T13:19:51;8.10;99.90
28520;DHT22;15732;48.534;20.382;2023-12-28T13:22:19;8.10;99.90
28520;DHT22;15732;48.534;20.382;2023-12-28T13:24:50;8.10;99.90
28520;DHT22;15732;48.534;20.382;2023-12-28T13:27:21;8.10;99.90
28520;DHT22;15732;48.534;20.382;2023-12-28T13:29:53;8.10;99.90
28520;DHT22;15732;48.534;20.382;2023-12-28T13:32:24;8.10;99.90
28520;DHT22;15732;48.534;20.382;2023-12-28T13:34:55;8.10;99.90
28520;DHT22;15732;48.534;20.382;2023-12-28T13:37:26;8.10;99.90
28520;DHT22;15732;48.534;20.382;2023-12-28T13:39:57;8.10;99.90
28520;DHT22;15732;48.534;20.382;2023-12-28T13:42:28;8.10;99.90
28520;DHT22;15732;48.534;20.382;2023-12-28T13:45:00;8.10;99.90
28520;DHT22;15732;48.534;20.382;2023-12-28T13:47:32;8.10;99.90
28520;DHT22;15732;48.534;20.382;2023-12-28T13:50:04;8.10;99.90
28520;DHT22;15732;48.534;20.382;2023-12-28T13:52:31;8.00;99.90
28520;DHT22;15732;48.534;20.382;2023-12-28T13:55:01;8.00;99.90
28520;DHT22;15732;48.534;20.382;2023-12-28T13:57:29;8.00;99.90
28520;DHT22;15732;48.534;20.382;2023-12-28T14:00:00;8.00;99.90
28520;DHT22;15732;48.534;20.382;2023-12-28T14:02:27;8.00;99.90
28520;DHT22;15732;48.534;20.382;2023-12-28T14:04:58;7.90;99.90
28520;DHT22;15732;48.534;20.382;2023-12-28T14:07:29;7.90;99.90
28520;DHT22;15732;48.534;20.382;2023-12-28T14:09:57;7.90;99.90
28520;DHT22;15732;48.534;20.382;2023-12-28T14:12:28;7.90;99.90
28520;DHT22;15732;48.534;20.382;2023-12-28T14:14:59;7.80;99.90
28520;DHT22;15732;48.534;20.382;2023-12-28T14:17:26;7.80;99.90
28520;DHT22;15732;48.534;20.382;2023-12-28T14:19:59;7.80;99.90
28520;DHT22;15732;48.534;20.382;2023-12-28T14:22:30;7.70;99.90
28520;DHT22;15732;48.534;20.382;2023-12-28T14:24:58;7.70;99.90
28520;DHT22;15732;48.534;20.382;2023-12-28T14:27:28;7.60;99.90
28520;DHT22;15732;48.534;20.382;2023-12-28T14:29:56;7.60;99.90
28520;DHT22;15732;48.534;20.382;2023-12-28T14:32:24;7.50;99.90
28520;DHT22;15732;48.534;20.382;2023-12-28T14:34:52;7.50;99.90
28520;DHT22;15732;48.534;20.382;2023-12-28T14:37:19;7.40;99.90
28520;DHT22;15732;48.534;20.382;2023-12-28T14:39:47;7.40;99.90
28520;DHT22;15732;48.534;20.382;2023-12-28T14:42:18;7.30;99.90
28520;DHT22;15732;48.534;20.382;2023-12-28T14:44:49;7.30;99.90
28520;DHT22;15732;48.534;20.382;2023-12-28T14:47:20;7.20;99.90
28520;DHT22;15732;48.534;20.382;2023-12-28T14:49:52;7.20;99.90
28520;DHT22;15732;48.534;20.382;2023-12-28T14:52:23;7.10;99.90
28520;DHT22;15732;48.534;20.382;2023-12-28T14:54:55;7.00;99.90
28520;DHT22;15732;48.534;20.382;2023-12-28T14:57:26;6.90;99.90
28520;DHT22;15732;48.534;20.382;2023-12-28T14:59:56;6.90;99.90
28520;DHT22;15732;48.534;20.382;2023-12-28T15:02:27;6.80;99.90
28520;DHT22;15732;48.534;20.382;2023-12-28T15:04:59;6.80;99.90
28520;DHT22;15732;48.534;20.382;2023-12-28T15:07:27;6.80;99.90
28520;DHT22;15732;48.534;20.382;2023-12-28T15:09:58;6.70;99.90
28520;DHT22;15732;48.534;20.382;2023-12-28T15:12:26;6.70;99.90
28520;DHT22;15732;48.534;20.382;2023-12-28T15:14:54;6.60;99.90
28520;DHT22;15732;48.534;20.382;2023-12-28T15:17:26;6.60;99.90
28520;DHT22;15732;48.534;20.382;2023-12-28T15:19:54;6.50;99.90
28520;DHT22;15732;48.534;20.382;2023-12-28T15:22:23;6.50;99.90
28520;DHT22;15732;48.534;20.382;2023-12-28T15:24:51;6.40;99.90
28520;DHT22;15732;48.534;20.382;2023-12-28T15:27:19;6.40;99.90
28520;DHT22;15732;48.534;20.382;2023-12-28T15:29:47;6.30;99.90
28520;DHT22;15732;48.534;20.382;2023-12-28T15:32:14;6.20;99.90
28520;DHT22;15732;48.534;20.382;2023-12-28T15:34:46;6.20;99.90
28520;DHT22;15732;48.534;20.382;2023-12-28T15:37:13;6.10;99.90
28520;DHT22;15732;48.534;20.382;2023-12-28T15:39:44;6.00;99.90
28520;DHT22;15732;48.534;20.382;2023-12-28T15:42:16;6.00;99.90
28520;DHT22;15732;48.534;20.382;2023-12-28T15:44:46;5.90;99.90
28520;DHT22;15732;48.534;20.382;2023-12-28T15:47:14;5.80;99.90
28520;DHT22;15732;48.534;20.382;2023-12-28T15:49:47;5.70;99.90
28520;DHT22;15732;48.534;20.382;2023-12-28T15:52:14;5.70;99.90
28520;DHT22;15732;48.534;20.382;2023-12-28T15:54:44;5.70;99.90
28520;DHT22;15732;48.534;20.382;2023-12-28T15:57:12;5.60;99.90
28520;DHT22;15732;48.534;20.382;2023-12-28T15:59:39;5.60;99.90